sensor_id;sensor_type;location;lat;lon;timestamp;temperature;humidity
14000;DHT22;7075;53.574;10.054;2022-12-07T00:01:13;4.20;99.90
14000;DHT22;7075;53.574;10.054;2022-12-07T00:03:40;4.20;99.90
14000;DHT22;7075;53.574;10.054;2022-12-07T00:06:07;4.20;99.90
14000;DHT22;7075;53.574;10.054;2022-12-07T00:08:34;4.30;99.90
14000;DHT22;7075;53.574;10.054;2022-12-07T00:11:02;4.20;99.90
14000;DHT22;7075;53.574;10.054;2022-12-07T00:13:29;4.20;99.90
14000;DHT22;7075;53.574;10.054;2022-12-07T00:15:54;4.30;99.90
14000;DHT22;7075;53.574;10.054;2022-12-07T00:18:20;4.30;99.90
14000;DHT22;7075;53.574;10.054;2022-12-07T00:20:46;4.30;99.90
14000;DHT22;7075;53.574;10.054;2022-12-07T00:23:11;4.30;99.90
14000;DHT22;7075;53.574;10.054;2022-12-07T00:25:37;4.30;99.90
14000;DHT22;7075;53.574;10.054;2022-12-07T00:28:03;4.30;99.90
14000;DHT22;7075;53.574;10.054;2022-12-07T00:30:28;4.30;99.90
14000;DHT22;7075;53.574;10.054;2022-12-07T00:32:54;4.30;99.90
14000;DHT22;7075;53.574;10.054;2022-12-07T00:35:20;4.30;99.90
14000;DHT22;7075;53.574;10.054;2022-12-07T00:37:45;4.70;99.90
14000;DHT22;7075;53.574;10.054;2022-12-07T00:40:11;4.50;99.90
14000;DHT22;7075;53.574;10.054;2022-12-07T00:42:37;4.40;99.90
14000;DHT22;7075;53.574;10.054;2022-12-07T00:45:03;4.40;99.90
14000;DHT22;7075;53.574;10.054;2022-12-07T00:47:28;4.40;99.90
14000;DHT22;7075;53.574;10.054;2022-12-07T00:49:54;4.40;99.90
14000;DHT22;7075;53.574;10.054;2022-12-07T00:52:20;4.30;99.90
14000;DHT22;7075;53.574;10.054;2022-12-07T00:54:45;4.30;99.90
14000;DHT22;7075;53.574;10.054;2022-12-07T00:57:11;4.30;99.90
14000;DHT22;7075;53.574;10.054;2022-12-07T00:59:37;4.30;99.90
14000;DHT22;7075;53.574;10.054;2022-12-07T01:02:02;4.20;99.90
14000;DHT22;7075;53.574;10.054;2022-12-07T01:04:28;4.30;99.90
14000;DHT22;7075;53.574;10.054;2022-12-07T01:06:55;4.30;99.90
14000;DHT22;7075;53.574;10.054;2022-12-07T01:09:20;4.30;99.90
14000;DHT22;7075;53.574;10.054;2022-12-07T01:11:46;4.30;99.90
14000;DHT22;7075;53.574;10.054;2022-12-07T01:14:12;4.30;99.90
14000;DHT22;7075;53.574;10.054;2022-12-07T01:16:38;4.40;99.90
14000;DHT22;7075;53.574;10.054;2022-12-07T01:19:04;4.40;99.90
14000;DHT22;7075;53.574;10.054;2022-12-07T01:21:32;4.30;99.90
14000;DHT22;7075;53.574;10.054;2022-12-07T01:24:00;4.30;99.90
14000;DHT22;7075;53.574;10.054;2022-12-07T01:26:27;4.30;99.90
14000;DHT22;7075;53.574;10.054;2022-12-07T01:28:53;4.30;99.90
14000;DHT22;7075;53.574;10.054;2022-12-07T01:31:22;4.30;99.90
14000;DHT22;7075;53.574;10.054;2022-12-07T01:33:51;4.30;99.90
14000;DHT22;7075;53.574;10.054;2022-12-07T01:36:26;4.30;99.90
14000;DHT22;7075;53.574;10.054;2022-12-07T01:38:59;4.30;99.90
14000;DHT22;7075;53.574;10.054;2022-12-07T01:41:28;4.30;99.90
14000;DHT22;7075;53.574;10.054;2022-12-07T01:46:40;4.30;99.90
14000;DHT22;7075;53.574;10.054;2022-12-07T01:49:10;4.20;99.90
14000;DHT22;7075;53.574;10.054;2022-12-07T01:51:38;4.20;99.90
14000;DHT22;7075;53.574;10.054;2022-12-07T01:54:06;4.20;99.90
14000;DHT22;7075;53.574;10.054;2022-12-07T01:56:32;4.30;99.90
14000;DHT22;7075;53.574;10.054;2022-12-07T01:59:00;4.20;99.90
14000;DHT22;7075;53.574;10.054;2022-12-07T02:01:26;4.30;99.90
14000;DHT22;7075;53.574;10.054;2022-12-07T02:03:52;4.30;99.90
14000;DHT22;7075;53.574;10.054;2022-12-07T02:06:22;4.30;99.90
14000;DHT22;7075;53.574;10.054;2022-12-07T02:08:49;4.30;99.90
14000;DHT22;7075;53.574;10.054;2022-12-07T02:11:14;4.30;99.90
14000;DHT22;7075;53.574;10.054;2022-12-07T02:13:42;4.30;99.90
14000;DHT22;7075;53.574;10.054;2022-12-07T02:16:20;4.30;99.90
14000;DHT22;7075;53.574;10.054;2022-12-07T02:24:53;4.20;99.90
14000;DHT22;7075;53.574;10.054;2022-12-07T02:27:38;4.30;99.90
14000;DHT22;7075;53.574;10.054;2022-12-07T02:30:11;4.30;99.90
14000;DHT22;7075;53.574;10.054;2022-12-07T02:32:46;4.30;99.90
14000;DHT22;7075;53.574;10.054;2022-12-07T02:38:26;4.20;99.90
14000;DHT22;7075;53.574;10.054;2022-12-07T02:40:54;4.20;99.90
14000;DHT22;7075;53.574;10.054;2022-12-07T02:43:42;4.30;99.90
14000;DHT22;7075;53.574;10.054;2022-12-07T02:46:16;4.20;99.90
14000;DHT22;7075;53.574;10.054;2022-12-07T02:48:43;4.20;99.90
14000;DHT22;7075;53.574;10.054;2022-12-07T02:51:09;4.20;99.90
14000;DHT22;7075;53.574;10.054;2022-12-07T02:53:37;4.20;99.90
14000;DHT22;7075;53.574;10.054;2022-12-07T02:56:18;4.20;99.90
14000;DHT22;7075;53.574;10.054;2022-12-07T02:59:00;4.30;99.90
14000;DHT22;7075;53.574;10.054;2022-12-07T03:06:58;4.20;99.90
14000;DHT22;7075;53.574;10.054;2022-12-07T03:12:27;4.20;99.90
14000;DHT22;7075;53.574;10.054;2022-12-07T03:15:06;4.20;99.90
14000;DHT22;7075;53.574;10.054;2022-12-07T03:17:36;4.20;99.90
14000;DHT22;7075;53.574;10.054;2022-12-07T03:20:06;4.20;99.90
14000;DHT22;7075;53.574;10.054;2022-12-07T03:22:34;4.20;99.90
14000;DHT22;7075;53.574;10.054;2022-12-07T03:25:05;4.20;99.90
14000;DHT22;7075;53.574;10.054;2022-12-07T03:27:40;4.10;99.90
14000;DHT22;7075;53.574;10.054;2022-12-07T03:30:08;4.10;99.90
14000;DHT22;7075;53.574;10.054;2022-12-07T03:38:25;4.10;99.90
14000;DHT22;7075;53.574;10.054;2022-12-07T03:41:12;4.00;99.90
14000;DHT22;7075;53.574;10.054;2022-12-07T03:43:40;4.00;99.90
14000;DHT22;7075;53.574;10.054;2022-12-07T03:48:54;4.00;99.90
14000;DHT22;7075;53.574;10.054;2022-12-07T03:51:31;4.00;99.90
14000;DHT22;7075;53.574;10.054;2022-12-07T03:54:13;4.00;99.90
14000;DHT22;7075;53.574;10.054;2022-12-07T03:56:42;4.00;99.90
14000;DHT22;7075;53.574;10.054;2022-12-07T03:59:09;3.90;99.90
14000;DHT22;7075;53.574;10.054;2022-12-07T04:01:36;3.90;99.90
14000;DHT22;7075;53.574;10.054;2022-12-07T04:04:02;3.90;99.90
14000;DHT22;7075;53.574;10.054;2022-12-07T04:06:27;3.90;99.90
14000;DHT22;7075;53.574;10.054;2022-12-07T04:08:53;3.90;99.90
14000;DHT22;7075;53.574;10.054;2022-12-07T04:11:18;3.90;99.90
14000;DHT22;7075;53.574;10.054;2022-12-07T04:13:44;3.90;99.90
14000;DHT22;7075;53.574;10.054;2022-12-07T04:16:28;3.90;99.90
14000;DHT22;7075;53.574;10.054;2022-12-07T04:18:54;3.80;99.90
14000;DHT22;7075;53.574;10.054;2022-12-07T04:21:20;3.80;99.90
14000;DHT22;7075;53.574;10.054;2022-12-07T04:23:45;3.80;99.90
14000;DHT22;7075;53.574;10.054;2022-12-07T04:26:11;3.90;99.90
14000;DHT22;7075;53.574;10.054;2022-12-07T04:28:36;3.80;99.90
14000;DHT22;7075;53.574;10.054;2022-12-07T04:31:02;3.80;99.90
14000;DHT22;7075;53.574;10.054;2022-12-07T04:33:28;3.80;99.90
14000;DHT22;7075;53.574;10.054;2022-12-07T04:35:53;3.80;99.90
14000;DHT22;7075;53.574;10.054;2022-12-07T04:38:19;3.70;99.90
14000;DHT22;7075;53.574;10.054;2022-12-07T04:40:44;3.70;99.90
14000;DHT22;7075;53.574;10.054;2022-12-07T04:43:10;3.70;99.90
14000;DHT22;7075;53.574;10.054;2022-12-07T04:45:36;3.70;99.90
14000;DHT22;7075;53.574;10.054;2022-12-07T04:48:01;3.70;99.90
14000;DHT22;7075;53.574;10.054;2022-12-07T04:50:27;3.70;99.90
14000;DHT22;7075;53.574;10.054;2022-12-07T04:52:53;3.70;99.90
14000;DHT22;7075;53.574;10.054;2022-12-07T04:55:18;3.70;99.90
14000;DHT22;7075;53.574;10.054;2022-12-07T04:57:44;3.70;99.90
14000;DHT22;7075;53.574;10.054;2022-12-07T05:00:10;3.60;99.90
14000;DHT22;7075;53.574;10.054;2022-12-07T05:02:36;3.60;99.90
14000;DHT22;7075;53.574;10.054;2022-12-07T05:05:01;3.60;99.90
14000;DHT22;7075;53.574;10.054;2022-12-07T05:07:27;3.60;99.90
14000;DHT22;7075;53.574;10.054;2022-12-07T05:09:53;3.60;99.90
14000;DHT22;7075;53.574;10.054;2022-12-07T05:12:18;3.60;99.90
14000;DHT22;7075;53.574;10.054;2022-12-07T05:14:44;3.60;99.90
14000;DHT22;7075;53.574;10.054;2022-12-07T05:17:10;3.60;99.90
14000;DHT22;7075;53.574;10.054;2022-12-07T05:19:36;3.60;99.90
14000;DHT22;7075;53.574;10.054;2022-12-07T05:22:02;3.70;99.90
14000;DHT22;7075;53.574;10.054;2022-12-07T05:24:28;3.50;99.90
14000;DHT22;7075;53.574;10.054;2022-12-07T05:26:53;3.60;99.90
14000;DHT22;7075;53.574;10.054;2022-12-07T05:29:19;3.60;99.90
14000;DHT22;7075;53.574;10.054;2022-12-07T05:31:45;3.60;99.90
14000;DHT22;7075;53.574;10.054;2022-12-07T05:34:11;3.60;99.90
14000;DHT22;7075;53.574;10.054;2022-12-07T05:36:37;3.50;99.90
14000;DHT22;7075;53.574;10.054;2022-12-07T05:39:03;3.60;99.90
14000;DHT22;7075;53.574;10.054;2022-12-07T05:41:29;3.60;99.90
14000;DHT22;7075;53.574;10.054;2022-12-07T05:44:13;3.60;99.90
14000;DHT22;7075;53.574;10.054;2022-12-07T05:46:39;3.60;99.90
14000;DHT22;7075;53.574;10.054;2022-12-07T05:49:04;3.60;99.90
14000;DHT22;7075;53.574;10.054;2022-12-07T05:51:30;3.50;99.90
14000;DHT22;7075;53.574;10.054;2022-12-07T05:53:56;3.50;99.90
14000;DHT22;7075;53.574;10.054;2022-12-07T05:56:22;3.50;99.90
14000;DHT22;7075;53.574;10.054;2022-12-07T05:58:48;3.60;99.90
14000;DHT22;7075;53.574;10.054;2022-12-07T06:01:32;3.50;99.90
14000;DHT22;7075;53.574;10.054;2022-12-07T06:03:57;3.50;99.90
14000;DHT22;7075;53.574;10.054;2022-12-07T06:06:23;3.60;99.90
14000;DHT22;7075;53.574;10.054;2022-12-07T06:08:49;3.50;99.90
14000;DHT22;7075;53.574;10.054;2022-12-07T06:11:14;3.50;99.90
14000;DHT22;7075;53.574;10.054;2022-12-07T06:13:59;3.50;99.90
14000;DHT22;7075;53.574;10.054;2022-12-07T06:16:24;3.50;99.90
14000;DHT22;7075;53.574;10.054;2022-12-07T06:18:50;3.50;99.90
14000;DHT22;7075;53.574;10.054;2022-12-07T06:21:15;3.60;99.90
14000;DHT22;7075;53.574;10.054;2022-12-07T06:23:41;3.50;99.90
14000;DHT22;7075;53.574;10.054;2022-12-07T06:26:07;3.50;99.90
14000;DHT22;7075;53.574;10.054;2022-12-07T06:28:32;3.50;99.90
14000;DHT22;7075;53.574;10.054;2022-12-07T06:30:59;3.50;99.90
14000;DHT22;7075;53.574;10.054;2022-12-07T06:33:25;3.50;99.90
14000;DHT22;7075;53.574;10.054;2022-12-07T06:35:51;3.50;99.90
14000;DHT22;7075;53.574;10.054;2022-12-07T06:38:17;3.50;99.90
14000;DHT22;7075;53.574;10.054;2022-12-07T06:40:43;3.40;99.90
14000;DHT22;7075;53.574;10.054;2022-12-07T06:43:08;3.50;99.90
14000;DHT22;7075;53.574;10.054;2022-12-07T06:45:34;3.50;99.90
14000;DHT22;7075;53.574;10.054;2022-12-07T06:47:59;3.40;99.90
14000;DHT22;7075;53.574;10.054;2022-12-07T06:50:25;3.40;99.90
14000;DHT22;7075;53.574;10.054;2022-12-07T06:52:51;3.30;99.90
14000;DHT22;7075;53.574;10.054;2022-12-07T06:55:17;3.30;99.90
14000;DHT22;7075;53.574;10.054;2022-12-07T06:57:43;3.30;99.90
14000;DHT22;7075;53.574;10.054;2022-12-07T07:00:09;3.40;99.90
14000;DHT22;7075;53.574;10.054;2022-12-07T07:02:35;3.50;99.90
14000;DHT22;7075;53.574;10.054;2022-12-07T07:05:01;3.50;99.90
14000;DHT22;7075;53.574;10.054;2022-12-07T07:07:26;3.40;99.90
14000;DHT22;7075;53.574;10.054;2022-12-07T07:09:52;3.40;99.90
14000;DHT22;7075;53.574;10.054;2022-12-07T07:12:17;3.40;99.90
14000;DHT22;7075;53.574;10.054;2022-12-07T07:14:43;3.40;99.90
14000;DHT22;7075;53.574;10.054;2022-12-07T07:17:09;3.40;99.90
14000;DHT22;7075;53.574;10.054;2022-12-07T07:19:34;3.50;99.90
14000;DHT22;7075;53.574;10.054;2022-12-07T07:22:00;3.50;99.90
14000;DHT22;7075;53.574;10.054;2022-12-07T07:24:26;3.40;99.90
14000;DHT22;7075;53.574;10.054;2022-12-07T07:26:51;3.40;99.90
14000;DHT22;7075;53.574;10.054;2022-12-07T07:29:17;3.40;99.90
14000;DHT22;7075;53.574;10.054;2022-12-07T07:31:43;3.40;99.90
14000;DHT22;7075;53.574;10.054;2022-12-07T07:34:08;3.40;99.90
14000;DHT22;7075;53.574;10.054;2022-12-07T07:36:34;3.40;99.90
14000;DHT22;7075;53.574;10.054;2022-12-07T07:39:00;3.30;99.90
14000;DHT22;7075;53.574;10.054;2022-12-07T07:41:25;3.30;99.90
14000;DHT22;7075;53.574;10.054;2022-12-07T07:43:51;3.40;99.90
14000;DHT22;7075;53.574;10.054;2022-12-07T07:46:17;3.40;99.90
14000;DHT22;7075;53.574;10.054;2022-12-07T07:48:42;3.40;99.90
14000;DHT22;7075;53.574;10.054;2022-12-07T07:51:08;3.40;99.90
14000;DHT22;7075;53.574;10.054;2022-12-07T07:53:34;3.50;99.90
14000;DHT22;7075;53.574;10.054;2022-12-07T07:56:00;3.40;99.90
14000;DHT22;7075;53.574;10.054;2022-12-07T07:58:25;3.40;99.90
14000;DHT22;7075;53.574;10.054;2022-12-07T08:00:51;3.40;99.90
14000;DHT22;7075;53.574;10.054;2022-12-07T08:03:17;3.40;99.90
14000;DHT22;7075;53.574;10.054;2022-12-07T08:05:43;3.50;99.90
14000;DHT22;7075;53.574;10.054;2022-12-07T08:08:08;3.50;99.90
14000;DHT22;7075;53.574;10.054;2022-12-07T08:10:34;3.50;99.90
14000;DHT22;7075;53.574;10.054;2022-12-07T08:13:00;3.60;99.90
14000;DHT22;7075;53.574;10.054;2022-12-07T08:15:43;3.60;99.90
14000;DHT22;7075;53.574;10.054;2022-12-07T08:18:10;3.60;99.90
14000;DHT22;7075;53.574;10.054;2022-12-07T08:20:37;3.60;99.90
14000;DHT22;7075;53.574;10.054;2022-12-07T08:23:04;3.60;99.90
14000;DHT22;7075;53.574;10.054;2022-12-07T08:25:30;3.60;99.90
14000;DHT22;7075;53.574;10.054;2022-12-07T08:27:56;3.50;99.90
14000;DHT22;7075;53.574;10.054;2022-12-07T08:30:22;3.60;99.90
14000;DHT22;7075;53.574;10.054;2022-12-07T08:32:48;3.60;99.90
14000;DHT22;7075;53.574;10.054;2022-12-07T08:35:14;3.60;99.90
14000;DHT22;7075;53.574;10.054;2022-12-07T08:37:40;3.70;99.90
14000;DHT22;7075;53.574;10.054;2022-12-07T08:40:07;3.60;99.90
14000;DHT22;7075;53.574;10.054;2022-12-07T08:42:33;3.70;99.90
14000;DHT22;7075;53.574;10.054;2022-12-07T08:45:11;3.70;99.90
14000;DHT22;7075;53.574;10.054;2022-12-07T08:47:39;3.70;99.90
14000;DHT22;7075;53.574;10.054;2022-12-07T08:50:07;3.70;99.90
14000;DHT22;7075;53.574;10.054;2022-12-07T08:52:35;3.80;99.90
14000;DHT22;7075;53.574;10.054;2022-12-07T08:55:02;3.70;99.90
14000;DHT22;7075;53.574;10.054;2022-12-07T08:57:29;3.70;99.90
14000;DHT22;7075;53.574;10.054;2022-12-07T08:59:54;3.80;99.90
14000;DHT22;7075;53.574;10.054;2022-12-07T09:02:20;3.80;99.90
14000;DHT22;7075;53.574;10.054;2022-12-07T09:04:46;3.80;99.90
14000;DHT22;7075;53.574;10.054;2022-12-07T09:07:11;3.90;99.90
14000;DHT22;7075;53.574;10.054;2022-12-07T09:09:37;3.90;99.90
14000;DHT22;7075;53.574;10.054;2022-12-07T09:12:03;3.90;99.90
14000;DHT22;7075;53.574;10.054;2022-12-07T09:14:29;4.00;99.90
14000;DHT22;7075;53.574;10.054;2022-12-07T09:16:55;4.00;99.90
14000;DHT22;7075;53.574;10.054;2022-12-07T09:19:20;4.10;99.90
14000;DHT22;7075;53.574;10.054;2022-12-07T09:21:46;4.00;99.90
14000;DHT22;7075;53.574;10.054;2022-12-07T09:24:13;4.10;99.90
14000;DHT22;7075;53.574;10.054;2022-12-07T09:26:38;4.10;99.90
14000;DHT22;7075;53.574;10.054;2022-12-07T09:29:05;4.10;99.90
14000;DHT22;7075;53.574;10.054;2022-12-07T09:31:31;4.10;99.90
14000;DHT22;7075;53.574;10.054;2022-12-07T09:33:58;4.10;99.90
14000;DHT22;7075;53.574;10.054;2022-12-07T09:36:25;4.10;99.90
14000;DHT22;7075;53.574;10.054;2022-12-07T09:38:51;4.10;99.90
14000;DHT22;7075;53.574;10.054;2022-12-07T09:41:17;4.10;99.90
14000;DHT22;7075;53.574;10.054;2022-12-07T09:43:44;4.10;99.90
14000;DHT22;7075;53.574;10.054;2022-12-07T09:46:15;4.10;99.90
14000;DHT22;7075;53.574;10.054;2022-12-07T09:48:43;4.10;99.90
14000;DHT22;7075;53.574;10.054;2022-12-07T09:51:29;4.20;99.90
14000;DHT22;7075;53.574;10.054;2022-12-07T09:53:57;4.20;99.90
14000;DHT22;7075;53.574;10.054;2022-12-07T09:56:24;4.20;99.90
14000;DHT22;7075;53.574;10.054;2022-12-07T09:58:54;4.30;99.90
14000;DHT22;7075;53.574;10.054;2022-12-07T10:01:23;4.30;99.90
14000;DHT22;7075;53.574;10.054;2022-12-07T10:03:54;4.40;99.90
14000;DHT22;7075;53.574;10.054;2022-12-07T10:06:21;4.30;99.90
14000;DHT22;7075;53.574;10.054;2022-12-07T10:08:47;4.40;99.90
14000;DHT22;7075;53.574;10.054;2022-12-07T10:11:13;4.40;99.90
14000;DHT22;7075;53.574;10.054;2022-12-07T10:13:44;4.40;99.90
14000;DHT22;7075;53.574;10.054;2022-12-07T10:16:32;4.40;99.90
14000;DHT22;7075;53.574;10.054;2022-12-07T10:19:23;4.50;99.90
14000;DHT22;7075;53.574;10.054;2022-12-07T10:22:10;4.60;99.90
14000;DHT22;7075;53.574;10.054;2022-12-07T10:24:37;4.80;99.90
14000;DHT22;7075;53.574;10.054;2022-12-07T10:27:30;4.70;99.90
14000;DHT22;7075;53.574;10.054;2022-12-07T10:29:53;4.70;99.90
14000;DHT22;7075;53.574;10.054;2022-12-07T10:34:44;4.70;99.90
14000;DHT22;7075;53.574;10.054;2022-12-07T10:39:56;4.70;99.90
14000;DHT22;7075;53.574;10.054;2022-12-07T10:42:29;4.60;99.90
14000;DHT22;7075;53.574;10.054;2022-12-07T10:45:16;4.70;99.90
14000;DHT22;7075;53.574;10.054;2022-12-07T10:51:01;4.70;99.90
14000;DHT22;7075;53.574;10.054;2022-12-07T10:56:32;4.70;99.90
14000;DHT22;7075;53.574;10.054;2022-12-07T10:59:12;4.70;99.90
14000;DHT22;7075;53.574;10.054;2022-12-07T11:01:48;4.70;99.90
14000;DHT22;7075;53.574;10.054;2022-12-07T11:04:38;4.80;99.90
14000;DHT22;7075;53.574;10.054;2022-12-07T11:10:22;4.80;99.90
14000;DHT22;7075;53.574;10.054;2022-12-07T11:23:45;5.00;99.90
14000;DHT22;7075;53.574;10.054;2022-12-07T11:34:34;4.90;99.90
14000;DHT22;7075;53.574;10.054;2022-12-07T11:37:05;4.90;99.90
14000;DHT22;7075;53.574;10.054;2022-12-07T11:39:47;4.90;99.90
14000;DHT22;7075;53.574;10.054;2022-12-07T11:42:27;4.90;99.90
14000;DHT22;7075;53.574;10.054;2022-12-07T11:45:00;5.00;99.90
14000;DHT22;7075;53.574;10.054;2022-12-07T11:47:45;5.00;99.90
14000;DHT22;7075;53.574;10.054;2022-12-07T11:50:33;5.00;99.90
14000;DHT22;7075;53.574;10.054;2022-12-07T11:53:09;5.00;99.90
14000;DHT22;7075;53.574;10.054;2022-12-07T11:58:40;5.10;99.90
14000;DHT22;7075;53.574;10.054;2022-12-07T12:03:51;5.10;99.90
14000;DHT22;7075;53.574;10.054;2022-12-07T12:06:17;5.10;99.90
14000;DHT22;7075;53.574;10.054;2022-12-07T12:09:06;5.20;99.90
14000;DHT22;7075;53.574;10.054;2022-12-07T12:11:56;5.30;99.90
14000;DHT22;7075;53.574;10.054;2022-12-07T12:25:59;5.60;99.90
14000;DHT22;7075;53.574;10.054;2022-12-07T12:28:34;5.50;99.90
14000;DHT22;7075;53.574;10.054;2022-12-07T12:31:11;5.60;99.90
14000;DHT22;7075;53.574;10.054;2022-12-07T12:33:42;5.60;99.90
14000;DHT22;7075;53.574;10.054;2022-12-07T12:38:50;5.80;99.90
14000;DHT22;7075;53.574;10.054;2022-12-07T12:46:46;5.90;99.90
14000;DHT22;7075;53.574;10.054;2022-12-07T12:51:49;6.20;99.90
14000;DHT22;7075;53.574;10.054;2022-12-07T12:57:01;6.20;99.90
14000;DHT22;7075;53.574;10.054;2022-12-07T12:59:32;6.20;99.90
14000;DHT22;7075;53.574;10.054;2022-12-07T13:15:44;6.50;99.90
14000;DHT22;7075;53.574;10.054;2022-12-07T13:21:02;6.70;99.90
14000;DHT22;7075;53.574;10.054;2022-12-07T13:29:05;6.40;99.90
14000;DHT22;7075;53.574;10.054;2022-12-07T13:31:44;6.50;99.90
14000;DHT22;7075;53.574;10.054;2022-12-07T13:39:53;6.50;99.90
14000;DHT22;7075;53.574;10.054;2022-12-07T13:44:57;6.40;99.90
14000;DHT22;7075;53.574;10.054;2022-12-07T13:47:55;6.40;99.90
14000;DHT22;7075;53.574;10.054;2022-12-07T13:50:27;6.40;99.90
14000;DHT22;7075;53.574;10.054;2022-12-07T13:53:00;6.30;99.90
14000;DHT22;7075;53.574;10.054;2022-12-07T13:55:27;6.40;99.90
14000;DHT22;7075;53.574;10.054;2022-12-07T13:57:54;6.30;99.90
14000;DHT22;7075;53.574;10.054;2022-12-07T14:00:26;6.10;99.90
14000;DHT22;7075;53.574;10.054;2022-12-07T14:05:39;6.00;99.90
14000;DHT22;7075;53.574;10.054;2022-12-07T14:13:00;5.80;99.90
14000;DHT22;7075;53.574;10.054;2022-12-07T14:15:32;5.90;99.90
14000;DHT22;7075;53.574;10.054;2022-12-07T14:17:59;5.80;99.90
14000;DHT22;7075;53.574;10.054;2022-12-07T14:22:56;5.80;99.90
14000;DHT22;7075;53.574;10.054;2022-12-07T14:25:26;5.80;99.90
14000;DHT22;7075;53.574;10.054;2022-12-07T14:28:00;5.80;99.90
14000;DHT22;7075;53.574;10.054;2022-12-07T14:30:29;5.80;99.90
14000;DHT22;7075;53.574;10.054;2022-12-07T14:32:58;5.70;99.90
14000;DHT22;7075;53.574;10.054;2022-12-07T14:35:26;5.70;99.90
14000;DHT22;7075;53.574;10.054;2022-12-07T14:37:52;5.80;99.90
14000;DHT22;7075;53.574;10.054;2022-12-07T14:40:23;5.80;99.90
14000;DHT22;7075;53.574;10.054;2022-12-07T14:42:52;5.70;99.90
14000;DHT22;7075;53.574;10.054;2022-12-07T14:45:21;5.70;99.90
14000;DHT22;7075;53.574;10.054;2022-12-07T14:47:47;5.70;99.90
14000;DHT22;7075;53.574;10.054;2022-12-07T14:50:18;5.70;99.90
14000;DHT22;7075;53.574;10.054;2022-12-07T14:52:51;5.70;99.90
14000;DHT22;7075;53.574;10.054;2022-12-07T14:55:23;5.70;99.90
14000;DHT22;7075;53.574;10.054;2022-12-07T14:57:50;5.60;99.90
14000;DHT22;7075;53.574;10.054;2022-12-07T15:00:16;5.60;99.90
14000;DHT22;7075;53.574;10.054;2022-12-07T15:02:43;5.60;99.90
14000;DHT22;7075;53.574;10.054;2022-12-07T15:05:09;5.50;99.90
14000;DHT22;7075;53.574;10.054;2022-12-07T15:07:35;5.60;99.90
14000;DHT22;7075;53.574;10.054;2022-12-07T15:10:01;5.60;99.90
14000;DHT22;7075;53.574;10.054;2022-12-07T15:12:26;5.50;99.90
14000;DHT22;7075;53.574;10.054;2022-12-07T15:14:52;5.50;99.90
14000;DHT22;7075;53.574;10.054;2022-12-07T15:17:18;5.50;99.90
14000;DHT22;7075;53.574;10.054;2022-12-07T15:19:43;5.50;99.90
14000;DHT22;7075;53.574;10.054;2022-12-07T15:22:09;5.50;99.90
14000;DHT22;7075;53.574;10.054;2022-12-07T15:24:36;5.40;99.90
14000;DHT22;7075;53.574;10.054;2022-12-07T15:27:02;5.50;99.90
14000;DHT22;7075;53.574;10.054;2022-12-07T15:29:28;5.40;99.90
14000;DHT22;7075;53.574;10.054;2022-12-07T15:31:53;5.30;99.90
14000;DHT22;7075;53.574;10.054;2022-12-07T15:34:19;5.30;99.90
14000;DHT22;7075;53.574;10.054;2022-12-07T15:36:45;5.20;99.90
14000;DHT22;7075;53.574;10.054;2022-12-07T15:39:10;5.10;99.90
14000;DHT22;7075;53.574;10.054;2022-12-07T15:41:37;5.00;99.90
14000;DHT22;7075;53.574;10.054;2022-12-07T15:44:02;5.00;99.90
14000;DHT22;7075;53.574;10.054;2022-12-07T15:46:47;5.00;99.90
14000;DHT22;7075;53.574;10.054;2022-12-07T15:49:16;5.00;99.90
14000;DHT22;7075;53.574;10.054;2022-12-07T15:51:43;5.00;99.90
14000;DHT22;7075;53.574;10.054;2022-12-07T15:54:19;5.00;99.90
14000;DHT22;7075;53.574;10.054;2022-12-07T15:56:46;5.00;99.90
14000;DHT22;7075;53.574;10.054;2022-12-07T15:59:12;4.90;99.90
14000;DHT22;7075;53.574;10.054;2022-12-07T16:01:38;4.90;99.90
14000;DHT22;7075;53.574;10.054;2022-12-07T16:04:04;4.90;99.90
14000;DHT22;7075;53.574;10.054;2022-12-07T16:06:29;4.80;99.90
14000;DHT22;7075;53.574;10.054;2022-12-07T16:08:55;4.80;99.90
14000;DHT22;7075;53.574;10.054;2022-12-07T16:11:21;4.80;99.90
14000;DHT22;7075;53.574;10.054;2022-12-07T16:13:46;4.80;99.90
14000;DHT22;7075;53.574;10.054;2022-12-07T16:16:15;4.80;99.90
14000;DHT22;7075;53.574;10.054;2022-12-07T16:18:45;4.80;99.90
14000;DHT22;7075;53.574;10.054;2022-12-07T16:21:12;4.80;99.90
14000;DHT22;7075;53.574;10.054;2022-12-07T16:23:38;4.80;99.90
14000;DHT22;7075;53.574;10.054;2022-12-07T16:26:05;4.80;99.90
14000;DHT22;7075;53.574;10.054;2022-12-07T16:28:31;4.80;99.90
14000;DHT22;7075;53.574;10.054;2022-12-07T16:31:08;4.80;99.90
14000;DHT22;7075;53.574;10.054;2022-12-07T16:33:35;4.80;99.90
14000;DHT22;7075;53.574;10.054;2022-12-07T16:36:03;4.80;99.90
14000;DHT22;7075;53.574;10.054;2022-12-07T16:38:28;4.80;99.90
14000;DHT22;7075;53.574;10.054;2022-12-07T16:40:54;4.70;99.90
14000;DHT22;7075;53.574;10.054;2022-12-07T16:43:20;4.70;99.90
14000;DHT22;7075;53.574;10.054;2022-12-07T16:45:46;4.70;99.90
14000;DHT22;7075;53.574;10.054;2022-12-07T16:48:13;4.70;99.90
14000;DHT22;7075;53.574;10.054;2022-12-07T16:50:39;4.70;99.90
14000;DHT22;7075;53.574;10.054;2022-12-07T16:53:07;4.70;99.90
14000;DHT22;7075;53.574;10.054;2022-12-07T16:55:36;4.70;99.90
14000;DHT22;7075;53.574;10.054;2022-12-07T16:58:02;4.70;99.90
14000;DHT22;7075;53.574;10.054;2022-12-07T17:00:28;4.70;99.90
14000;DHT22;7075;53.574;10.054;2022-12-07T17:02:54;4.60;99.90
14000;DHT22;7075;53.574;10.054;2022-12-07T17:05:20;4.60;99.90
14000;DHT22;7075;53.574;10.054;2022-12-07T17:07:46;4.60;99.90
14000;DHT22;7075;53.574;10.054;2022-12-07T17:10:12;4.60;99.90
14000;DHT22;7075;53.574;10.054;2022-12-07T17:12:37;4.50;99.90
14000;DHT22;7075;53.574;10.054;2022-12-07T17:15:03;4.50;99.90
14000;DHT22;7075;53.574;10.054;2022-12-07T17:17:57;4.50;99.90
14000;DHT22;7075;53.574;10.054;2022-12-07T17:20:24;4.30;99.90
14000;DHT22;7075;53.574;10.054;2022-12-07T17:22:51;4.30;99.90
14000;DHT22;7075;53.574;10.054;2022-12-07T17:25:17;4.30;99.90
14000;DHT22;7075;53.574;10.054;2022-12-07T17:27:43;4.30;99.90
14000;DHT22;7075;53.574;10.054;2022-12-07T17:30:09;4.30;99.90
14000;DHT22;7075;53.574;10.054;2022-12-07T17:32:40;4.30;99.90
14000;DHT22;7075;53.574;10.054;2022-12-07T17:35:06;4.30;99.90
14000;DHT22;7075;53.574;10.054;2022-12-07T17:37:33;4.30;99.90
14000;DHT22;7075;53.574;10.054;2022-12-07T17:40:01;4.30;99.90
14000;DHT22;7075;53.574;10.054;2022-12-07T17:42:27;4.30;99.90
14000;DHT22;7075;53.574;10.054;2022-12-07T17:45:03;4.30;99.90
14000;DHT22;7075;53.574;10.054;2022-12-07T17:47:29;4.30;99.90
14000;DHT22;7075;53.574;10.054;2022-12-07T17:49:55;4.20;99.90
14000;DHT22;7075;53.574;10.054;2022-12-07T17:52:21;4.30;99.90
14000;DHT22;7075;53.574;10.054;2022-12-07T17:55:06;4.30;99.90
14000;DHT22;7075;53.574;10.054;2022-12-07T17:57:31;4.30;99.90
14000;DHT22;7075;53.574;10.054;2022-12-07T17:59:57;4.30;99.90
14000;DHT22;7075;53.574;10.054;2022-12-07T18:02:23;4.30;99.90
14000;DHT22;7075;53.574;10.054;2022-12-07T18:04:48;4.30;99.90
14000;DHT22;7075;53.574;10.054;2022-12-07T18:07:14;4.30;99.90